sensor_id;sensor_type;location;lat;lon;timestamp;P1;durP1;ratioP1;P2;durP2;ratioP2
46781;SDS011;32541;46.298;11.506;2022-11-20T00:00:27;1.53;;;0.33;;
46781;SDS011;32541;46.298;11.506;2022-11-20T00:02:53;0.40;;;0.27;;
46781;SDS011;32541;46.298;11.506;2022-11-20T00:05:19;0.60;;;0.37;;
46781;SDS011;32541;46.298;11.506;2022-11-20T00:07:45;1.27;;;0.30;;
46781;SDS011;32541;46.298;11.506;2022-11-20T00:10:11;1.33;;;0.50;;
46781;SDS011;32541;46.298;11.506;2022-11-20T00:12:36;0.73;;;0.30;;
46781;SDS011;32541;46.298;11.506;2022-11-20T00:15:02;0.93;;;0.30;;
46781;SDS011;32541;46.298;11.506;2022-11-20T00:17:28;0.50;;;0.30;;
46781;SDS011;32541;46.298;11.506;2022-11-20T00:19:53;0.93;;;0.40;;
46781;SDS011;32541;46.298;11.506;2022-11-20T00:22:19;0.60;;;0.43;;
46781;SDS011;32541;46.298;11.506;2022-11-20T00:24:44;0.60;;;0.20;;
46781;SDS011;32541;46.298;11.506;2022-11-20T00:27:10;0.20;;;0.10;;
46781;SDS011;32541;46.298;11.506;2022-11-20T00:29:35;1.03;;;0.40;;
46781;SDS011;32541;46.298;11.506;2022-11-20T00:32:00;0.40;;;0.30;;
46781;SDS011;32541;46.298;11.506;2022-11-20T00:34:26;2.60;;;0.90;;
46781;SDS011;32541;46.298;11.506;2022-11-20T00:36:51;0.70;;;0.30;;
46781;SDS011;32541;46.298;11.506;2022-11-20T00:39:16;0.60;;;0.20;;
46781;SDS011;32541;46.298;11.506;2022-11-20T00:41:42;0.57;;;0.30;;
46781;SDS011;32541;46.298;11.506;2022-11-20T00:44:07;0.60;;;0.27;;
46781;SDS011;32541;46.298;11.506;2022-11-20T00:46:33;0.47;;;0.20;;
46781;SDS011;32541;46.298;11.506;2022-11-20T00:48:59;0.37;;;0.23;;
46781;SDS011;32541;46.298;11.506;2022-11-20T00:51:24;0.50;;;0.20;;
46781;SDS011;32541;46.298;11.506;2022-11-20T00:53:51;0.50;;;0.30;;
46781;SDS011;32541;46.298;11.506;2022-11-20T00:56:17;0.83;;;0.30;;
46781;SDS011;32541;46.298;11.506;2022-11-20T00:58:44;1.37;;;0.43;;
46781;SDS011;32541;46.298;11.506;2022-11-20T01:01:18;0.70;;;0.37;;
46781;SDS011;32541;46.298;11.506;2022-11-20T01:03:49;0.40;;;0.30;;
46781;SDS011;32541;46.298;11.506;2022-11-20T01:08:42;0.83;;;0.40;;
46781;SDS011;32541;46.298;11.506;2022-11-20T01:11:10;0.67;;;0.30;;
46781;SDS011;32541;46.298;11.506;2022-11-20T01:13:38;0.83;;;0.33;;
46781;SDS011;32541;46.298;11.506;2022-11-20T01:18:29;0.60;;;0.30;;
46781;SDS011;32541;46.298;11.506;2022-11-20T01:20:55;0.23;;;0.20;;
46781;SDS011;32541;46.298;11.506;2022-11-20T01:23:20;0.30;;;0.20;;
46781;SDS011;32541;46.298;11.506;2022-11-20T01:25:45;0.50;;;0.30;;
46781;SDS011;32541;46.298;11.506;2022-11-20T01:28:11;0.33;;;0.20;;
46781;SDS011;32541;46.298;11.506;2022-11-20T01:30:36;0.50;;;0.23;;
46781;SDS011;32541;46.298;11.506;2022-11-20T01:33:01;1.70;;;0.50;;
46781;SDS011;32541;46.298;11.506;2022-11-20T01:35:27;0.87;;;0.33;;
46781;SDS011;32541;46.298;11.506;2022-11-20T01:37:52;1.43;;;0.47;;
46781;SDS011;32541;46.298;11.506;2022-11-20T01:40:18;0.57;;;0.30;;
46781;SDS011;32541;46.298;11.506;2022-11-20T01:42:47;0.63;;;0.20;;
46781;SDS011;32541;46.298;11.506;2022-11-20T01:48:51;1.33;;;0.30;;
46781;SDS011;32541;46.298;11.506;2022-11-20T01:51:29;0.67;;;0.30;;
46781;SDS011;32541;46.298;11.506;2022-11-20T01:54:01;0.63;;;0.50;;
46781;SDS011;32541;46.298;11.506;2022-11-20T01:56:31;0.80;;;0.33;;
46781;SDS011;32541;46.298;11.506;2022-11-20T01:59:02;0.20;;;0.20;;
46781;SDS011;32541;46.298;11.506;2022-11-20T02:01:30;0.20;;;0.20;;
46781;SDS011;32541;46.298;11.506;2022-11-20T02:03:56;0.47;;;0.27;;
46781;SDS011;32541;46.298;11.506;2022-11-20T02:06:26;0.93;;;0.27;;
46781;SDS011;32541;46.298;11.506;2022-11-20T02:08:59;0.60;;;0.27;;
46781;SDS011;32541;46.298;11.506;2022-11-20T02:11:25;0.90;;;0.40;;
46781;SDS011;32541;46.298;11.506;2022-11-20T02:13:50;1.00;;;0.40;;
46781;SDS011;32541;46.298;11.506;2022-11-20T02:16:23;1.20;;;0.40;;
46781;SDS011;32541;46.298;11.506;2022-11-20T02:18:51;0.20;;;0.20;;
46781;SDS011;32541;46.298;11.506;2022-11-20T02:26:26;0.80;;;0.30;;
46781;SDS011;32541;46.298;11.506;2022-11-20T02:28:54;0.30;;;0.20;;
46781;SDS011;32541;46.298;11.506;2022-11-20T02:31:20;0.47;;;0.30;;
46781;SDS011;32541;46.298;11.506;2022-11-20T02:33:46;1.07;;;0.30;;
46781;SDS011;32541;46.298;11.506;2022-11-20T02:36:11;1.07;;;0.40;;
46781;SDS011;32541;46.298;11.506;2022-11-20T02:38:39;0.93;;;0.40;;
46781;SDS011;32541;46.298;11.506;2022-11-20T02:41:05;0.80;;;0.30;;
46781;SDS011;32541;46.298;11.506;2022-11-20T02:43:30;0.97;;;0.30;;
46781;SDS011;32541;46.298;11.506;2022-11-20T02:45:56;0.23;;;0.20;;
46781;SDS011;32541;46.298;11.506;2022-11-20T02:48:21;0.83;;;0.30;;
46781;SDS011;32541;46.298;11.506;2022-11-20T02:50:47;0.83;;;0.40;;
46781;SDS011;32541;46.298;11.506;2022-11-20T02:53:12;1.70;;;0.63;;
46781;SDS011;32541;46.298;11.506;2022-11-20T02:55:37;5.00;;;1.20;;
46781;SDS011;32541;46.298;11.506;2022-11-20T02:58:03;1.10;;;0.80;;
46781;SDS011;32541;46.298;11.506;2022-11-20T03:00:28;0.90;;;0.43;;
46781;SDS011;32541;46.298;11.506;2022-11-20T03:02:54;0.30;;;0.30;;
46781;SDS011;32541;46.298;11.506;2022-11-20T03:05:19;0.80;;;0.20;;
46781;SDS011;32541;46.298;11.506;2022-11-20T03:07:44;2.00;;;0.40;;
46781;SDS011;32541;46.298;11.506;2022-11-20T03:10:10;1.00;;;0.60;;
46781;SDS011;32541;46.298;11.506;2022-11-20T03:12:35;0.67;;;0.33;;
46781;SDS011;32541;46.298;11.506;2022-11-20T03:15:01;1.07;;;0.40;;
46781;SDS011;32541;46.298;11.506;2022-11-20T03:17:26;2.00;;;0.47;;
46781;SDS011;32541;46.298;11.506;2022-11-20T03:19:52;2.07;;;0.50;;
46781;SDS011;32541;46.298;11.506;2022-11-20T03:22:17;1.93;;;1.20;;
46781;SDS011;32541;46.298;11.506;2022-11-20T03:24:42;4.27;;;0.93;;
46781;SDS011;32541;46.298;11.506;2022-11-20T03:27:08;1.37;;;0.60;;
46781;SDS011;32541;46.298;11.506;2022-11-20T03:29:34;2.33;;;0.50;;
46781;SDS011;32541;46.298;11.506;2022-11-20T03:32:00;1.47;;;0.60;;
46781;SDS011;32541;46.298;11.506;2022-11-20T03:34:25;0.60;;;0.37;;
46781;SDS011;32541;46.298;11.506;2022-11-20T03:36:51;1.33;;;0.50;;
46781;SDS011;32541;46.298;11.506;2022-11-20T03:39:16;0.33;;;0.20;;
46781;SDS011;32541;46.298;11.506;2022-11-20T03:41:41;0.47;;;0.20;;
46781;SDS011;32541;46.298;11.506;2022-11-20T03:44:08;0.27;;;0.20;;
46781;SDS011;32541;46.298;11.506;2022-11-20T03:46:35;1.83;;;0.80;;
46781;SDS011;32541;46.298;11.506;2022-11-20T03:49:00;2.37;;;0.67;;
46781;SDS011;32541;46.298;11.506;2022-11-20T03:51:30;2.17;;;0.63;;
46781;SDS011;32541;46.298;11.506;2022-11-20T03:53:58;1.07;;;0.47;;
46781;SDS011;32541;46.298;11.506;2022-11-20T03:56:28;0.77;;;0.60;;
46781;SDS011;32541;46.298;11.506;2022-11-20T03:58:55;1.43;;;0.43;;
46781;SDS011;32541;46.298;11.506;2022-11-20T04:01:22;1.30;;;0.30;;
46781;SDS011;32541;46.298;11.506;2022-11-20T04:03:52;0.60;;;0.40;;
46781;SDS011;32541;46.298;11.506;2022-11-20T04:06:21;0.77;;;0.40;;
46781;SDS011;32541;46.298;11.506;2022-11-20T04:08:48;0.27;;;0.20;;
46781;SDS011;32541;46.298;11.506;2022-11-20T04:11:27;0.40;;;0.20;;
46781;SDS011;32541;46.298;11.506;2022-11-20T04:13:55;0.57;;;0.37;;
46781;SDS011;32541;46.298;11.506;2022-11-20T04:16:22;0.50;;;0.40;;
46781;SDS011;32541;46.298;11.506;2022-11-20T04:18:56;1.37;;;0.23;;
46781;SDS011;32541;46.298;11.506;2022-11-20T04:21:23;1.53;;;0.50;;
46781;SDS011;32541;46.298;11.506;2022-11-20T04:23:49;1.77;;;0.60;;
46781;SDS011;32541;46.298;11.506;2022-11-20T04:26:15;2.10;;;0.30;;
46781;SDS011;32541;46.298;11.506;2022-11-20T04:28:41;1.33;;;0.30;;
46781;SDS011;32541;46.298;11.506;2022-11-20T04:34:01;0.87;;;0.40;;
46781;SDS011;32541;46.298;11.506;2022-11-20T04:36:28;3.83;;;1.33;;
46781;SDS011;32541;46.298;11.506;2022-11-20T04:38:55;2.13;;;0.83;;
46781;SDS011;32541;46.298;11.506;2022-11-20T04:41:30;2.73;;;1.03;;
46781;SDS011;32541;46.298;11.506;2022-11-20T04:43:58;3.00;;;1.00;;
46781;SDS011;32541;46.298;11.506;2022-11-20T04:46:27;2.63;;;1.47;;
46781;SDS011;32541;46.298;11.506;2022-11-20T04:48:54;4.50;;;1.23;;
46781;SDS011;32541;46.298;11.506;2022-11-20T04:51:19;3.80;;;1.47;;
46781;SDS011;32541;46.298;11.506;2022-11-20T04:53:44;6.63;;;3.30;;
46781;SDS011;32541;46.298;11.506;2022-11-20T04:56:11;4.07;;;2.20;;
46781;SDS011;32541;46.298;11.506;2022-11-20T04:58:37;2.67;;;1.10;;
46781;SDS011;32541;46.298;11.506;2022-11-20T05:01:07;3.10;;;1.07;;
46781;SDS011;32541;46.298;11.506;2022-11-20T05:03:36;2.53;;;1.15;;
46781;SDS011;32541;46.298;11.506;2022-11-20T05:06:02;2.63;;;1.43;;
46781;SDS011;32541;46.298;11.506;2022-11-20T05:08:30;5.33;;;1.87;;
46781;SDS011;32541;46.298;11.506;2022-11-20T05:11:15;2.53;;;1.20;;
46781;SDS011;32541;46.298;11.506;2022-11-20T05:13:42;3.77;;;1.33;;
46781;SDS011;32541;46.298;11.506;2022-11-20T05:16:08;2.53;;;1.00;;
46781;SDS011;32541;46.298;11.506;2022-11-20T05:18:36;1.90;;;0.70;;
46781;SDS011;32541;46.298;11.506;2022-11-20T05:21:02;1.37;;;0.60;;
46781;SDS011;32541;46.298;11.506;2022-11-20T05:23:29;1.70;;;0.67;;
46781;SDS011;32541;46.298;11.506;2022-11-20T05:25:56;2.57;;;1.23;;
46781;SDS011;32541;46.298;11.506;2022-11-20T05:28:22;1.70;;;0.70;;
46781;SDS011;32541;46.298;11.506;2022-11-20T05:30:48;2.20;;;0.97;;
46781;SDS011;32541;46.298;11.506;2022-11-20T05:33:14;1.07;;;0.40;;
46781;SDS011;32541;46.298;11.506;2022-11-20T05:35:40;1.17;;;0.73;;
46781;SDS011;32541;46.298;11.506;2022-11-20T05:38:05;0.63;;;0.20;;
46781;SDS011;32541;46.298;11.506;2022-11-20T05:40:31;1.07;;;0.53;;
46781;SDS011;32541;46.298;11.506;2022-11-20T05:42:56;1.83;;;0.83;;
46781;SDS011;32541;46.298;11.506;2022-11-20T05:45:21;3.57;;;1.80;;
46781;SDS011;32541;46.298;11.506;2022-11-20T05:47:47;2.30;;;1.23;;
46781;SDS011;32541;46.298;11.506;2022-11-20T05:50:13;3.73;;;1.60;;
46781;SDS011;32541;46.298;11.506;2022-11-20T05:52:39;2.93;;;1.30;;
46781;SDS011;32541;46.298;11.506;2022-11-20T05:55:05;2.57;;;0.90;;
46781;SDS011;32541;46.298;11.506;2022-11-20T05:57:31;1.57;;;0.97;;
46781;SDS011;32541;46.298;11.506;2022-11-20T05:59:56;2.70;;;1.13;;
46781;SDS011;32541;46.298;11.506;2022-11-20T06:02:21;3.03;;;1.60;;
46781;SDS011;32541;46.298;11.506;2022-11-20T06:04:47;1.80;;;0.47;;
46781;SDS011;32541;46.298;11.506;2022-11-20T06:07:12;2.43;;;0.87;;
46781;SDS011;32541;46.298;11.506;2022-11-20T06:09:38;5.63;;;3.10;;
46781;SDS011;32541;46.298;11.506;2022-11-20T06:12:03;3.50;;;2.07;;
46781;SDS011;32541;46.298;11.506;2022-11-20T06:14:29;2.73;;;0.87;;
46781;SDS011;32541;46.298;11.506;2022-11-20T06:16:54;1.80;;;0.67;;
46781;SDS011;32541;46.298;11.506;2022-11-20T06:19:19;1.70;;;0.90;;
46781;SDS011;32541;46.298;11.506;2022-11-20T06:21:45;3.97;;;1.60;;
46781;SDS011;32541;46.298;11.506;2022-11-20T06:24:13;1.63;;;0.90;;
46781;SDS011;32541;46.298;11.506;2022-11-20T06:26:38;3.13;;;0.70;;
46781;SDS011;32541;46.298;11.506;2022-11-20T06:29:04;3.70;;;1.83;;
46781;SDS011;32541;46.298;11.506;2022-11-20T06:31:29;2.73;;;1.40;;
46781;SDS011;32541;46.298;11.506;2022-11-20T06:33:57;3.47;;;1.87;;
46781;SDS011;32541;46.298;11.506;2022-11-20T06:36:23;2.07;;;1.00;;
46781;SDS011;32541;46.298;11.506;2022-11-20T06:38:48;1.67;;;0.67;;
46781;SDS011;32541;46.298;11.506;2022-11-20T06:41:18;5.73;;;2.47;;
46781;SDS011;32541;46.298;11.506;2022-11-20T06:43:45;14.93;;;5.90;;
46781;SDS011;32541;46.298;11.506;2022-11-20T06:46:11;8.57;;;4.37;;
46781;SDS011;32541;46.298;11.506;2022-11-20T06:48:38;8.30;;;4.63;;
46781;SDS011;32541;46.298;11.506;2022-11-20T06:51:04;8.50;;;3.77;;
46781;SDS011;32541;46.298;11.506;2022-11-20T06:53:31;4.73;;;2.40;;
46781;SDS011;32541;46.298;11.506;2022-11-20T06:55:57;6.03;;;2.70;;
46781;SDS011;32541;46.298;11.506;2022-11-20T06:58:23;8.60;;;4.23;;
46781;SDS011;32541;46.298;11.506;2022-11-20T07:00:51;16.37;;;10.77;;
46781;SDS011;32541;46.298;11.506;2022-11-20T07:03:16;31.43;;;19.80;;
46781;SDS011;32541;46.298;11.506;2022-11-20T07:05:41;30.80;;;18.63;;
46781;SDS011;32541;46.298;11.506;2022-11-20T07:08:07;25.60;;;13.37;;
46781;SDS011;32541;46.298;11.506;2022-11-20T07:10:33;15.27;;;6.20;;
46781;SDS011;32541;46.298;11.506;2022-11-20T07:12:59;5.33;;;2.47;;
46781;SDS011;32541;46.298;11.506;2022-11-20T07:15:25;12.10;;;5.20;;
46781;SDS011;32541;46.298;11.506;2022-11-20T07:17:51;8.47;;;4.17;;
46781;SDS011;32541;46.298;11.506;2022-11-20T07:20:16;8.93;;;4.80;;
46781;SDS011;32541;46.298;11.506;2022-11-20T07:22:42;12.07;;;5.67;;
46781;SDS011;32541;46.298;11.506;2022-11-20T07:25:08;13.70;;;7.50;;
46781;SDS011;32541;46.298;11.506;2022-11-20T07:27:34;20.27;;;10.70;;
46781;SDS011;32541;46.298;11.506;2022-11-20T07:30:00;15.63;;;8.93;;
46781;SDS011;32541;46.298;11.506;2022-11-20T07:32:26;5.83;;;3.67;;
46781;SDS011;32541;46.298;11.506;2022-11-20T07:34:52;11.77;;;8.10;;
46781;SDS011;32541;46.298;11.506;2022-11-20T07:37:17;10.82;;;5.55;;
46781;SDS011;32541;46.298;11.506;2022-11-20T07:39:42;9.50;;;7.35;;
46781;SDS011;32541;46.298;11.506;2022-11-20T07:42:08;7.57;;;5.60;;
46781;SDS011;32541;46.298;11.506;2022-11-20T07:44:34;3.67;;;2.40;;
46781;SDS011;32541;46.298;11.506;2022-11-20T07:47:00;2.17;;;1.60;;
46781;SDS011;32541;46.298;11.506;2022-11-20T07:49:25;3.80;;;2.92;;
46781;SDS011;32541;46.298;11.506;2022-11-20T07:51:51;14.43;;;10.20;;
46781;SDS011;32541;46.298;11.506;2022-11-20T07:54:18;6.55;;;3.97;;
46781;SDS011;32541;46.298;11.506;2022-11-20T07:56:44;11.75;;;4.28;;
46781;SDS011;32541;46.298;11.506;2022-11-20T07:59:09;7.32;;;4.00;;
46781;SDS011;32541;46.298;11.506;2022-11-20T08:01:36;3.35;;;2.00;;
46781;SDS011;32541;46.298;11.506;2022-11-20T08:04:02;4.97;;;3.08;;
46781;SDS011;32541;46.298;11.506;2022-11-20T08:06:28;9.18;;;7.43;;
46781;SDS011;32541;46.298;11.506;2022-11-20T08:08:53;4.43;;;3.08;;
46781;SDS011;32541;46.298;11.506;2022-11-20T08:11:19;2.72;;;1.83;;
46781;SDS011;32541;46.298;11.506;2022-11-20T08:14:02;12.30;;;7.10;;
46781;SDS011;32541;46.298;11.506;2022-11-20T08:16:37;14.05;;;8.65;;
46781;SDS011;32541;46.298;11.506;2022-11-20T08:19:07;14.02;;;8.90;;
46781;SDS011;32541;46.298;11.506;2022-11-20T08:21:33;26.75;;;17.17;;
46781;SDS011;32541;46.298;11.506;2022-11-20T08:23:58;11.90;;;7.47;;
46781;SDS011;32541;46.298;11.506;2022-11-20T08:26:24;10.68;;;6.45;;
46781;SDS011;32541;46.298;11.506;2022-11-20T08:28:54;10.80;;;7.85;;
46781;SDS011;32541;46.298;11.506;2022-11-20T08:31:21;10.98;;;7.20;;
46781;SDS011;32541;46.298;11.506;2022-11-20T08:33:47;17.00;;;11.45;;
46781;SDS011;32541;46.298;11.506;2022-11-20T08:36:13;21.55;;;13.30;;
46781;SDS011;32541;46.298;11.506;2022-11-20T08:38:38;27.20;;;16.85;;
46781;SDS011;32541;46.298;11.506;2022-11-20T08:41:05;27.20;;;18.60;;
46781;SDS011;32541;46.298;11.506;2022-11-20T08:43:49;23.20;;;15.07;;
46781;SDS011;32541;46.298;11.506;2022-11-20T08:46:15;17.08;;;10.73;;
46781;SDS011;32541;46.298;11.506;2022-11-20T08:48:41;14.18;;;9.93;;
46781;SDS011;32541;46.298;11.506;2022-11-20T08:51:07;12.95;;;7.72;;
46781;SDS011;32541;46.298;11.506;2022-11-20T08:53:33;8.88;;;4.93;;
46781;SDS011;32541;46.298;11.506;2022-11-20T08:55:58;7.72;;;5.07;;
46781;SDS011;32541;46.298;11.506;2022-11-20T08:58:24;6.95;;;4.57;;
46781;SDS011;32541;46.298;11.506;2022-11-20T09:00:51;6.07;;;4.30;;
46781;SDS011;32541;46.298;11.506;2022-11-20T09:03:17;6.85;;;4.15;;
46781;SDS011;32541;46.298;11.506;2022-11-20T09:05:42;8.90;;;5.10;;
46781;SDS011;32541;46.298;11.506;2022-11-20T09:08:08;8.90;;;5.10;;
46781;SDS011;32541;46.298;11.506;2022-11-20T09:10:34;8.80;;;5.57;;
46781;SDS011;32541;46.298;11.506;2022-11-20T09:13:00;8.52;;;5.25;;
46781;SDS011;32541;46.298;11.506;2022-11-20T09:15:25;8.50;;;4.07;;
46781;SDS011;32541;46.298;11.506;2022-11-20T09:17:54;9.63;;;5.60;;
46781;SDS011;32541;46.298;11.506;2022-11-20T09:20:21;5.72;;;3.20;;
46781;SDS011;32541;46.298;11.506;2022-11-20T09:22:47;6.88;;;4.47;;
46781;SDS011;32541;46.298;11.506;2022-11-20T09:25:13;8.70;;;3.25;;
46781;SDS011;32541;46.298;11.506;2022-11-20T09:27:38;10.55;;;4.32;;
46781;SDS011;32541;46.298;11.506;2022-11-20T09:30:06;9.68;;;6.07;;
46781;SDS011;32541;46.298;11.506;2022-11-20T09:32:32;9.95;;;6.63;;
46781;SDS011;32541;46.298;11.506;2022-11-20T09:34:57;8.63;;;6.05;;
46781;SDS011;32541;46.298;11.506;2022-11-20T09:37:23;10.20;;;5.28;;
46781;SDS011;32541;46.298;11.506;2022-11-20T09:39:48;6.18;;;4.47;;
46781;SDS011;32541;46.298;11.506;2022-11-20T09:42:26;7.72;;;4.57;;
46781;SDS011;32541;46.298;11.506;2022-11-20T09:50:45;6.18;;;3.92;;
46781;SDS011;32541;46.298;11.506;2022-11-20T09:56:11;6.65;;;4.35;;
46781;SDS011;32541;46.298;11.506;2022-11-20T10:01:32;5.28;;;3.67;;
46781;SDS011;32541;46.298;11.506;2022-11-20T10:04:11;4.53;;;2.78;;
46781;SDS011;32541;46.298;11.506;2022-11-20T10:09:21;5.50;;;2.75;;
46781;SDS011;32541;46.298;11.506;2022-11-20T10:14:34;5.20;;;2.90;;
46781;SDS011;32541;46.298;11.506;2022-11-20T10:31:00;9.95;;;4.65;;
46781;SDS011;32541;46.298;11.506;2022-11-20T10:33:31;8.23;;;4.18;;
46781;SDS011;32541;46.298;11.506;2022-11-20T10:41:22;2.80;;;1.60;;
46781;SDS011;32541;46.298;11.506;2022-11-20T10:44:01;1.65;;;0.95;;
46781;SDS011;32541;46.298;11.506;2022-11-20T10:46:34;1.88;;;0.80;;
46781;SDS011;32541;46.298;11.506;2022-11-20T10:49:14;0.43;;;0.43;;
46781;SDS011;32541;46.298;11.506;2022-11-20T10:51:48;3.40;;;0.68;;
46781;SDS011;32541;46.298;11.506;2022-11-20T10:56:48;1.38;;;0.30;;
46781;SDS011;32541;46.298;11.506;2022-11-20T11:01:44;0.90;;;0.40;;
46781;SDS011;32541;46.298;11.506;2022-11-20T11:04:16;6.38;;;3.55;;
46781;SDS011;32541;46.298;11.506;2022-11-20T11:06:53;1.50;;;1.20;;
46781;SDS011;32541;46.298;11.506;2022-11-20T11:09:29;1.67;;;0.80;;
46781;SDS011;32541;46.298;11.506;2022-11-20T11:14:24;5.13;;;2.30;;
46781;SDS011;32541;46.298;11.506;2022-11-20T11:16:54;0.30;;;0.20;;
46781;SDS011;32541;46.298;11.506;2022-11-20T11:19:21;2.33;;;1.13;;
46781;SDS011;32541;46.298;11.506;2022-11-20T11:21:50;1.08;;;0.60;;
46781;SDS011;32541;46.298;11.506;2022-11-20T11:26:52;2.80;;;0.68;;
46781;SDS011;32541;46.298;11.506;2022-11-20T11:29:22;1.08;;;0.40;;
46781;SDS011;32541;46.298;11.506;2022-11-20T11:31:48;0.70;;;0.50;;
46781;SDS011;32541;46.298;11.506;2022-11-20T11:34:15;0.20;;;0.10;;
46781;SDS011;32541;46.298;11.506;2022-11-20T11:36:42;0.75;;;0.17;;
46781;SDS011;32541;46.298;11.506;2022-11-20T11:39:19;0.28;;;0.15;;
46781;SDS011;32541;46.298;11.506;2022-11-20T11:41:46;1.10;;;0.22;;
46781;SDS011;32541;46.298;11.506;2022-11-20T11:44:15;0.47;;;0.13;;
46781;SDS011;32541;46.298;11.506;2022-11-20T11:47:02;41.78;;;22.30;;
46781;SDS011;32541;46.298;11.506;2022-11-20T11:49:30;1.77;;;0.57;;
46781;SDS011;32541;46.298;11.506;2022-11-20T11:54:49;1.17;;;0.50;;
46781;SDS011;32541;46.298;11.506;2022-11-20T11:59:52;1.00;;;0.20;;
46781;SDS011;32541;46.298;11.506;2022-11-20T12:02:48;0.22;;;0.20;;
46781;SDS011;32541;46.298;11.506;2022-11-20T12:05:42;0.13;;;0.10;;
46781;SDS011;32541;46.298;11.506;2022-11-20T12:08:27;0.52;;;0.22;;
46781;SDS011;32541;46.298;11.506;2022-11-20T12:10:57;1.17;;;0.30;;
46781;SDS011;32541;46.298;11.506;2022-11-20T12:13:34;0.63;;;0.35;;
46781;SDS011;32541;46.298;11.506;2022-11-20T12:16:02;0.75;;;0.38;;
46781;SDS011;32541;46.298;11.506;2022-11-20T12:18:29;0.63;;;0.30;;
46781;SDS011;32541;46.298;11.506;2022-11-20T12:32:36;0.70;;;0.35;;
46781;SDS011;32541;46.298;11.506;2022-11-20T12:35:29;2.35;;;0.68;;
46781;SDS011;32541;46.298;11.506;2022-11-20T12:38:25;0.65;;;0.40;;
46781;SDS011;32541;46.298;11.506;2022-11-20T12:43:42;1.67;;;0.40;;
46781;SDS011;32541;46.298;11.506;2022-11-20T12:46:53;0.43;;;0.10;;
46781;SDS011;32541;46.298;11.506;2022-11-20T12:49:49;0.55;;;0.30;;
46781;SDS011;32541;46.298;11.506;2022-11-20T12:57:35;0.40;;;0.30;;
46781;SDS011;32541;46.298;11.506;2022-11-20T13:00:17;0.80;;;0.40;;
46781;SDS011;32541;46.298;11.506;2022-11-20T13:08:33;0.73;;;0.32;;
46781;SDS011;32541;46.298;11.506;2022-11-20T13:13:36;0.32;;;0.20;;
46781;SDS011;32541;46.298;11.506;2022-11-20T13:16:11;0.68;;;0.30;;
46781;SDS011;32541;46.298;11.506;2022-11-20T13:19:01;1.00;;;0.55;;
46781;SDS011;32541;46.298;11.506;2022-11-20T13:21:35;1.98;;;0.40;;
46781;SDS011;32541;46.298;11.506;2022-11-20T13:24:50;0.65;;;0.32;;
46781;SDS011;32541;46.298;11.506;2022-11-20T13:29:33;0.68;;;0.30;;
46781;SDS011;32541;46.298;11.506;2022-11-20T13:32:32;1.63;;;0.30;;
46781;SDS011;32541;46.298;11.506;2022-11-20T13:34:56;0.90;;;0.40;;
46781;SDS011;32541;46.298;11.506;2022-11-20T13:37:33;0.90;;;0.45;;
46781;SDS011;32541;46.298;11.506;2022-11-20T13:45:21;0.80;;;0.52;;
46781;SDS011;32541;46.298;11.506;2022-11-20T13:47:51;0.88;;;0.40;;
46781;SDS011;32541;46.298;11.506;2022-11-20T13:50:18;1.38;;;0.60;;
46781;SDS011;32541;46.298;11.506;2022-11-20T13:52:58;1.35;;;0.65;;
46781;SDS011;32541;46.298;11.506;2022-11-20T13:58:12;1.75;;;0.43;;
46781;SDS011;32541;46.298;11.506;2022-11-20T14:00:44;0.52;;;0.30;;
46781;SDS011;32541;46.298;11.506;2022-11-20T14:03:20;1.15;;;0.50;;
46781;SDS011;32541;46.298;11.506;2022-11-20T14:05:59;0.50;;;0.30;;
46781;SDS011;32541;46.298;11.506;2022-11-20T14:11:18;0.32;;;0.13;;
46781;SDS011;32541;46.298;11.506;2022-11-20T14:16:29;0.60;;;0.32;;
46781;SDS011;32541;46.298;11.506;2022-11-20T14:18:57;1.02;;;0.30;;
46781;SDS011;32541;46.298;11.506;2022-11-20T14:21:42;0.28;;;0.20;;
46781;SDS011;32541;46.298;11.506;2022-11-20T14:24:10;0.85;;;0.20;;
46781;SDS011;32541;46.298;11.506;2022-11-20T14:26:37;2.08;;;0.43;;
46781;SDS011;32541;46.298;11.506;2022-11-20T14:29:12;0.47;;;0.30;;
46781;SDS011;32541;46.298;11.506;2022-11-20T14:31:54;0.82;;;0.30;;
46781;SDS011;32541;46.298;11.506;2022-11-20T14:34:22;0.70;;;0.30;;
46781;SDS011;32541;46.298;11.506;2022-11-20T14:36:56;1.17;;;0.50;;
46781;SDS011;32541;46.298;11.506;2022-11-20T14:39:36;1.48;;;0.80;;
46781;SDS011;32541;46.298;11.506;2022-11-20T14:42:15;1.52;;;0.50;;
46781;SDS011;32541;46.298;11.506;2022-11-20T14:44:42;0.52;;;0.40;;
46781;SDS011;32541;46.298;11.506;2022-11-20T14:47:10;1.40;;;0.70;;
46781;SDS011;32541;46.298;11.506;2022-11-20T14:49:38;0.57;;;0.30;;
46781;SDS011;32541;46.298;11.506;2022-11-20T14:52:15;0.77;;;0.60;;
46781;SDS011;32541;46.298;11.506;2022-11-20T14:54:49;1.17;;;0.80;;
46781;SDS011;32541;46.298;11.506;2022-11-20T14:57:32;2.85;;;1.50;;
46781;SDS011;32541;46.298;11.506;2022-11-20T15:00:06;3.55;;;1.92;;
46781;SDS011;32541;46.298;11.506;2022-11-20T15:02:32;4.40;;;1.73;;
46781;SDS011;32541;46.298;11.506;2022-11-20T15:04:59;3.78;;;2.28;;
46781;SDS011;32541;46.298;11.506;2022-11-20T15:07:35;2.22;;;1.52;;
46781;SDS011;32541;46.298;11.506;2022-11-20T15:10:04;4.18;;;2.40;;
46781;SDS011;32541;46.298;11.506;2022-11-20T15:12:32;3.20;;;2.25;;
46781;SDS011;32541;46.298;11.506;2022-11-20T15:15:01;6.88;;;3.50;;
46781;SDS011;32541;46.298;11.506;2022-11-20T15:17:27;8.10;;;3.72;;
46781;SDS011;32541;46.298;11.506;2022-11-20T15:19:54;12.43;;;4.95;;
46781;SDS011;32541;46.298;11.506;2022-11-20T15:22:20;10.32;;;4.65;;
46781;SDS011;32541;46.298;11.506;2022-11-20T15:24:46;14.38;;;5.63;;
46781;SDS011;32541;46.298;11.506;2022-11-20T15:27:11;11.98;;;4.85;;
46781;SDS011;32541;46.298;11.506;2022-11-20T15:29:37;7.45;;;3.92;;
46781;SDS011;32541;46.298;11.506;2022-11-20T15:32:02;6.32;;;3.72;;
46781;SDS011;32541;46.298;11.506;2022-11-20T15:34:28;5.22;;;2.47;;
46781;SDS011;32541;46.298;11.506;2022-11-20T15:36:53;4.70;;;2.55;;
46781;SDS011;32541;46.298;11.506;2022-11-20T15:39:19;3.42;;;1.85;;
46781;SDS011;32541;46.298;11.506;2022-11-20T15:41:45;4.05;;;2.83;;
46781;SDS011;32541;46.298;11.506;2022-11-20T15:44:11;6.70;;;3.38;;
46781;SDS011;32541;46.298;11.506;2022-11-20T15:46:37;11.50;;;5.05;;
46781;SDS011;32541;46.298;11.506;2022-11-20T15:49:11;15.77;;;7.43;;
46781;SDS011;32541;46.298;11.506;2022-11-20T15:51:38;16.58;;;7.43;;
46781;SDS011;32541;46.298;11.506;2022-11-20T15:56:35;9.45;;;4.60;;
46781;SDS011;32541;46.298;11.506;2022-11-20T15:59:00;8.02;;;4.88;;
46781;SDS011;32541;46.298;11.506;2022-11-20T16:01:25;9.33;;;5.60;;
46781;SDS011;32541;46.298;11.506;2022-11-20T16:03:51;11.87;;;7.17;;
46781;SDS011;32541;46.298;11.506;2022-11-20T16:06:16;8.33;;;4.47;;
46781;SDS011;32541;46.298;11.506;2022-11-20T16:08:42;10.17;;;5.40;;
46781;SDS011;32541;46.298;11.506;2022-11-20T16:11:09;40.03;;;15.63;;
46781;SDS011;32541;46.298;11.506;2022-11-20T16:13:37;19.00;;;9.10;;
46781;SDS011;32541;46.298;11.506;2022-11-20T16:16:37;10.50;;;5.20;;
46781;SDS011;32541;46.298;11.506;2022-11-20T16:19:04;8.23;;;3.70;;
46781;SDS011;32541;46.298;11.506;2022-11-20T16:21:30;3.67;;;2.10;;
46781;SDS011;32541;46.298;11.506;2022-11-20T16:23:59;9.10;;;5.27;;
46781;SDS011;32541;46.298;11.506;2022-11-20T16:28:55;3.57;;;1.67;;
46781;SDS011;32541;46.298;11.506;2022-11-20T16:31:21;5.23;;;3.00;;
46781;SDS011;32541;46.298;11.506;2022-11-20T16:33:50;6.83;;;4.43;;
46781;SDS011;32541;46.298;11.506;2022-11-20T16:36:17;8.40;;;4.73;;
46781;SDS011;32541;46.298;11.506;2022-11-20T16:38:43;3.20;;;2.00;;